createdAt,value
2018-03-04T00:00:01.275Z,1.0
2018-03-04T00:15:03.347Z,1.0
2018-03-04T00:30:01.306Z,1.0
2018-03-04T00:45:06.325Z,1.0
2018-03-04T01:00:02.273Z,1.0
2018-03-04T01:15:01.372Z,1.0
2018-03-04T01:30:04.463Z,1.0
2018-03-04T01:45:01.264Z,1.0
2018-03-04T02:00:04.469Z,1.0
2018-03-04T02:15:04.452Z,1.0
2018-03-04T02:30:02.373Z,1.0
2018-03-04T02:45:05.450Z,1.0
2018-03-04T02:50:02.320Z,0.9
2018-03-04T02:52:01.046Z,0.8
2018-03-04T02:53:01.050Z,0.7
2018-03-04T02:55:01.296Z,0.6
2018-03-04T02:56:01.051Z,0.5
2018-03-04T02:58:01.059Z,0.4
2018-03-04T02:59:01.056Z,0.3
2018-03-04T03:00:01.292Z,0.3
2018-03-04T03:01:01.062Z,0.2
2018-03-04T03:02:01.050Z,0.1
2018-03-04T05:05:01.529Z,0.1
2018-03-04T05:07:01.076Z,0.2
2018-03-04T05:08:01.078Z,0.3
2018-03-04T05:10:01.406Z,0.4
2018-03-04T05:11:01.079Z,0.5
2018-03-04T05:13:01.078Z,0.7
2018-03-04T05:14:01.057Z,0.8
2018-03-04T05:15:01.518Z,0.9
2018-03-04T05:16:01.122Z,1.1
2018-03-04T05:17:01.144Z,1.3
2018-03-04T05:18:01.081Z,1.6
2018-03-04T05:19:01.080Z,1.9
2018-03-04T05:20:01.330Z,2.1
2018-03-04T05:21:01.085Z,2.5
2018-03-04T05:22:01.085Z,2.9
2018-03-04T05:23:01.088Z,3.3
2018-03-04T05:24:01.083Z,3.9
2018-03-04T05:25:01.317Z,4.7
2018-03-04T05:26:01.114Z,5.5
2018-03-04T05:27:01.083Z,6.6
2018-03-04T05:28:01.088Z,7.8
2018-03-04T05:29:01.085Z,9.3
2018-03-04T05:30:01.322Z,11.1
2018-03-04T05:31:01.058Z,13.2
2018-03-04T05:32:01.085Z,15.8
2018-03-04T05:33:01.089Z,18.9
2018-03-04T05:34:01.085Z,22.6
2018-03-04T05:35:01.331Z,27.1
2018-03-04T05:36:01.086Z,32.3
2018-03-04T05:37:01.086Z,38.7
2018-03-04T05:38:01.087Z,46.2
2018-03-04T05:39:01.084Z,55.1
2018-03-04T05:40:01.323Z,65.7
2018-03-04T05:41:01.087Z,78.1
2018-03-04T05:42:01.088Z,92.7
2018-03-04T05:43:01.092Z,109.8
2018-03-04T05:44:01.088Z,129.6
2018-03-04T05:45:01.355Z,152.4
2018-03-04T05:46:01.087Z,178.5
2018-03-04T05:47:01.088Z,208.1
2018-03-04T05:48:01.088Z,241.9
2018-03-04T05:49:01.091Z,279.9
2018-03-04T05:50:01.333Z,322.7
2018-03-04T05:51:01.090Z,370.8
2018-03-04T05:52:01.088Z,424.5
2018-03-04T05:53:01.059Z,483.9
2018-03-04T05:54:01.091Z,549.7
2018-03-04T05:55:01.333Z,622.2
2018-03-04T05:56:01.092Z,702.2
2018-03-04T05:57:01.091Z,790.1
2018-03-04T05:58:01.089Z,886.1
2018-03-04T05:59:01.093Z,990.7
2018-03-04T06:00:01.301Z,1103.7
2018-03-04T06:01:01.099Z,1225.6
2018-03-04T06:02:01.093Z,1356.6
2018-03-04T06:03:01.090Z,1497.3
2018-03-04T06:04:01.090Z,1648.0
2018-03-04T06:05:01.338Z,1809.3
2018-03-04T06:06:01.089Z,1981.5
2018-03-04T06:07:01.091Z,2164.9
2018-03-04T06:08:01.093Z,2360.1
2018-03-04T06:09:01.095Z,2567.7
2018-03-04T06:10:01.374Z,2787.8
2018-03-04T06:11:01.099Z,3020.5
2018-03-04T06:12:01.061Z,3266.7
2018-03-04T06:13:01.099Z,3526.3
2018-03-04T06:14:01.096Z,3799.5
2018-03-04T06:15:01.343Z,4085.5
2018-03-04T06:16:01.094Z,4383.9
2018-03-04T06:17:01.092Z,4694.9
2018-03-04T06:18:01.095Z,5018.0
2018-03-04T06:19:01.094Z,5353.4
2018-03-04T06:20:01.323Z,5701.7
2018-03-04T06:21:01.127Z,6063.0
2018-03-04T06:22:01.106Z,6435.1
2018-03-04T06:23:01.095Z,6817.6
2018-03-04T06:24:01.100Z,7209.5
2018-03-04T06:25:01.295Z,7610.5
2018-03-04T06:26:01.131Z,8021.1
2018-03-04T06:27:01.097Z,8438.8
2018-03-04T06:28:01.384Z,8864.3
2018-03-04T06:29:01.098Z,9297.5
2018-03-04T06:30:01.295Z,9738.8
2018-03-04T06:31:01.124Z,10187.9
2018-03-04T06:32:01.127Z,10643.1
2018-03-04T06:33:01.094Z,11103.5
2018-03-04T06:34:01.094Z,11566.4
2018-03-04T06:35:01.297Z,12031.5
2018-03-04T06:36:01.121Z,12502.4
2018-03-04T06:37:01.128Z,12978.6
2018-03-04T06:38:01.100Z,13457.6
2018-03-04T06:39:01.098Z,13940.5
2018-03-04T06:40:01.298Z,14427.3
2018-03-04T06:41:01.100Z,14915.7
2018-03-04T06:42:01.132Z,15403.1
2018-03-04T06:43:01.101Z,15891.6
2018-03-04T06:44:01.110Z,16383.6
2018-03-04T06:45:01.305Z,16879.5
2018-03-04T06:46:01.101Z,17383.0
2018-03-04T06:47:01.130Z,17891.1
2018-03-04T06:48:01.132Z,18401.9
2018-03-04T06:50:04.428Z,18964.8
2018-03-04T06:51:01.087Z,19531.4
2018-03-04T06:52:01.080Z,20104.5
2018-03-04T06:53:01.108Z,20680.3
2018-03-04T06:54:01.080Z,21259.1
2018-03-04T06:55:01.292Z,21840.3
2018-03-04T06:56:01.089Z,22431.5
2018-03-04T06:57:01.086Z,23048.7
2018-03-04T06:58:01.106Z,23714.1
2018-03-04T06:59:01.109Z,24457.3
2018-03-04T07:00:01.282Z,25338.5
2018-03-04T07:01:01.080Z,26339.7
2018-03-04T07:02:01.081Z,27530.7
2018-03-04T07:03:01.081Z,28935.5
2018-03-04T07:04:01.106Z,30443.5
2018-03-04T07:05:01.289Z,31924.8
2018-03-04T07:06:01.082Z,33363.5
2018-03-04T07:07:01.085Z,34825.5
2018-03-04T07:08:01.083Z,36357.0
2018-03-04T07:09:01.111Z,38038.9
2018-03-04T07:10:01.354Z,39815.2
2018-03-04T07:11:01.085Z,41615.2
2018-03-04T07:12:01.123Z,43413.2
2018-03-04T07:13:01.090Z,45199.8
2018-03-04T07:14:01.086Z,46966.5
2018-03-04T07:15:01.280Z,48627.8
2018-03-04T07:16:01.088Z,50207.0
2018-03-04T07:17:01.151Z,51654.1
2018-03-04T07:18:01.089Z,52909.5
2018-03-04T07:19:01.102Z,54095.6
2018-03-04T07:20:01.292Z,55266.9
2018-03-04T07:21:01.122Z,56475.1
2018-03-04T07:22:01.089Z,57706.2
2018-03-04T07:23:01.090Z,58875.7
2018-03-04T07:24:01.371Z,59859.7
2018-03-04T07:25:01.303Z,60713.6
2018-03-04T07:26:01.115Z,61499.5
2018-03-04T07:27:01.090Z,62228.3
2018-03-04T07:28:01.071Z,62890.3
2018-03-04T07:29:01.129Z,63461.3
2018-03-04T07:30:01.300Z,63963.6
2018-03-04T07:31:01.091Z,64391.2
2018-03-04T07:32:01.326Z,64720.8
2018-03-04T07:33:01.093Z,64991.7
2018-03-04T07:34:01.133Z,65194.7
2018-03-04T07:35:01.297Z,65357.1
2018-03-04T07:36:01.092Z,65490.3
2018-03-04T07:37:01.091Z,65535.0
2018-03-04T07:45:01.565Z,65535.0
2018-03-04T08:00:04.464Z,65535.0
2018-03-04T08:15:01.322Z,65535.0
2018-03-04T08:30:02.364Z,65535.0
2018-03-04T08:45:01.343Z,65535.0
2018-03-04T09:00:01.706Z,65535.0
2018-03-04T09:15:01.320Z,65535.0
2018-03-04T09:30:03.374Z,65535.0
2018-03-04T09:45:01.323Z,65535.0
2018-03-04T09:46:01.138Z,63438.1
2018-03-04T09:47:01.097Z,60619.8
2018-03-04T09:48:01.097Z,57891.9
2018-03-04T09:49:01.096Z,55097.3
2018-03-04T09:50:01.308Z,53055.0
2018-03-04T09:51:01.138Z,51190.9
2018-03-04T09:52:01.097Z,49377.5
2018-03-04T09:53:06.108Z,46885.3
2018-03-04T09:54:01.099Z,43985.6
2018-03-04T09:55:01.364Z,42385.7
2018-03-04T09:56:01.131Z,40918.3
2018-03-04T09:57:01.075Z,38631.6
2018-03-04T09:58:01.098Z,36416.5
2018-03-04T09:59:01.097Z,34300.9
2018-03-04T10:00:01.303Z,32180.1
2018-03-04T10:01:01.132Z,32236.3
2018-03-04T10:02:02.126Z,33022.8
2018-03-04T10:03:01.104Z,33762.5
2018-03-04T10:04:01.104Z,34746.5
2018-03-04T10:06:01.086Z,35127.4
2018-03-04T10:07:01.123Z,35406.9
2018-03-04T10:08:01.083Z,35825.1
2018-03-04T10:09:01.081Z,37015.2
2018-03-04T10:10:01.546Z,38637.7
2018-03-04T10:11:01.085Z,39247.1
2018-03-04T10:12:01.082Z,40166.5
2018-03-04T10:13:01.108Z,42335.9
2018-03-04T10:14:01.082Z,44551.1
2018-03-04T10:15:01.288Z,46666.7
2018-03-04T10:16:01.090Z,48787.5
2018-03-04T10:17:01.086Z,50828.1
2018-03-04T10:18:01.163Z,52859.9
2018-03-04T10:19:01.085Z,54848.1
2018-03-04T10:20:02.312Z,56658.7
2018-03-04T10:21:01.086Z,58320.1
2018-03-04T10:22:01.085Z,59904.7
2018-03-04T10:23:01.083Z,61300.0
2018-03-04T10:24:01.119Z,62602.1
2018-03-04T10:25:01.288Z,63879.3
2018-03-04T10:26:01.355Z,64869.7
2018-03-04T10:27:01.094Z,65417.7
2018-03-04T10:28:01.086Z,65535.0
2018-03-04T10:30:01.360Z,65535.0
2018-03-04T10:45:02.315Z,65535.0
2018-03-04T11:00:03.377Z,65535.0
2018-03-04T11:15:01.301Z,65535.0
2018-03-04T11:30:02.342Z,65535.0
2018-03-04T11:45:01.573Z,65535.0
2018-03-04T12:00:01.384Z,65535.0
2018-03-04T12:15:02.380Z,65535.0
2018-03-04T12:30:04.474Z,65535.0
2018-03-04T12:46:01.083Z,65535.0
2018-03-04T13:00:01.449Z,65535.0
2018-03-04T13:15:04.511Z,65535.0
2018-03-04T13:30:01.414Z,65535.0
2018-03-04T13:45:01.633Z,65535.0
2018-03-04T14:00:02.355Z,65535.0
2018-03-04T14:15:01.572Z,65535.0
2018-03-04T14:30:04.469Z,65535.0
2018-03-04T14:45:01.336Z,65535.0
2018-03-04T15:00:03.414Z,65535.0
2018-03-04T15:06:01.096Z,65223.9
2018-03-04T15:07:01.132Z,64311.6
2018-03-04T15:08:01.098Z,63256.9
2018-03-04T15:09:01.104Z,62310.1
2018-03-04T15:10:01.368Z,61482.4
2018-03-04T15:11:01.100Z,60962.2
2018-03-04T15:12:01.134Z,60703.1
2018-03-04T15:13:01.105Z,60511.0
2018-03-04T15:14:01.102Z,60284.5
2018-03-04T15:15:01.304Z,60074.7
2018-03-04T15:17:01.088Z,59698.4
2018-03-04T15:18:01.137Z,59374.5
2018-03-04T15:19:01.117Z,58998.1
2018-03-04T15:20:01.061Z,58547.4
2018-03-04T15:21:01.293Z,57978.1
2018-03-04T15:22:01.085Z,57540.9
2018-03-04T15:23:01.090Z,57505.4
2018-03-04T15:24:01.126Z,57469.9
2018-03-04T15:25:01.053Z,57243.7
2018-03-04T15:26:01.287Z,56829.1
2018-03-04T15:27:01.089Z,56049.1
2018-03-04T15:28:01.120Z,54994.7
2018-03-04T15:29:01.083Z,53913.3
2018-03-04T15:30:01.130Z,52954.4
2018-03-04T15:31:01.293Z,52064.3
2018-03-04T15:32:02.111Z,51390.7
2018-03-04T15:33:01.085Z,50641.1
2018-03-04T15:34:01.090Z,49828.6
2018-03-04T15:35:01.100Z,48887.3
2018-03-04T15:36:01.557Z,47883.4
2018-03-04T15:37:01.087Z,46982.9
2018-03-04T15:38:01.089Z,46264.3
2018-03-04T15:39:01.090Z,45735.9
2018-03-04T15:40:01.090Z,45323.8
2018-03-04T15:41:01.328Z,45048.6
2018-03-04T15:42:01.086Z,44864.0
2018-03-04T15:43:01.092Z,44691.8
2018-03-04T15:44:01.089Z,44468.5
2018-03-04T15:45:01.089Z,44118.7
2018-03-04T15:46:01.331Z,43661.6
2018-03-04T15:47:01.089Z,43092.9
2018-03-04T15:48:01.092Z,42480.3
2018-03-04T15:49:01.088Z,41927.6
2018-03-04T15:50:01.089Z,41518.6
2018-03-04T15:51:01.332Z,41228.8
2018-03-04T15:52:01.119Z,40963.9
2018-03-04T15:53:01.142Z,40651.6
2018-03-04T15:54:01.090Z,40205.7
2018-03-04T15:55:01.126Z,39607.2
2018-03-04T15:56:01.431Z,38823.1
2018-03-04T15:57:01.119Z,37898.7
2018-03-04T15:58:01.094Z,36879.2
2018-03-04T15:59:01.061Z,35785.5
2018-03-04T16:00:01.096Z,34659.8
2018-03-04T16:01:01.317Z,33498.2
2018-03-04T16:02:01.139Z,32356.9
2018-03-04T16:03:01.091Z,31244.1
2018-03-04T16:04:01.093Z,30150.8
2018-03-04T16:05:01.099Z,29087.9
2018-03-04T16:06:01.293Z,28062.4
2018-03-04T16:07:01.138Z,27071.7
2018-03-04T16:08:01.101Z,26135.0
2018-03-04T16:09:01.097Z,25278.0
2018-03-04T16:10:01.092Z,24534.5
2018-03-04T16:11:01.324Z,23914.1
2018-03-04T16:12:01.130Z,23411.8
2018-03-04T16:13:01.103Z,23016.2
2018-03-04T16:14:01.097Z,22692.5
2018-03-04T16:15:01.128Z,22406.3
2018-03-04T16:16:01.320Z,22158.9
2018-03-04T16:18:01.121Z,21974.4
2018-03-04T16:19:01.089Z,21866.3
2018-03-04T16:20:01.064Z,21833.6
2018-03-04T16:21:01.128Z,21867.3
2018-03-04T16:22:01.363Z,21952.1
2018-03-04T16:23:01.094Z,22062.9
2018-03-04T16:24:01.098Z,22170.3
2018-03-04T16:25:01.107Z,22256.3
2018-03-04T16:26:01.118Z,22306.1
2018-03-04T16:27:01.560Z,22299.9
2018-03-04T16:28:01.131Z,22221.3
2018-03-04T16:29:01.097Z,22059.7
2018-03-04T16:30:01.101Z,21838.3
2018-03-04T16:31:01.102Z,21572.9
2018-03-04T16:32:06.268Z,21268.2
2018-03-04T16:33:01.132Z,20915.2
2018-03-04T16:34:01.097Z,20446.5
2018-03-04T16:35:01.098Z,19849.8
2018-03-04T16:36:01.100Z,19162.3
2018-03-04T16:37:01.389Z,18416.8
2018-03-04T16:38:01.130Z,17625.7
2018-03-04T16:39:01.095Z,16791.7
2018-03-04T16:40:01.104Z,15947.3
2018-03-04T16:41:01.096Z,15113.4
2018-03-04T16:42:01.303Z,14297.1
2018-03-04T16:43:01.124Z,13510.7
2018-03-04T16:44:01.128Z,12785.1
2018-03-04T16:45:01.102Z,12095.7
2018-03-04T16:46:01.108Z,11442.5
2018-03-04T16:47:01.312Z,10808.7
2018-03-04T16:48:01.136Z,10164.8
2018-03-04T16:50:02.112Z,9545.5
2018-03-04T16:51:01.085Z,8988.4
2018-03-04T16:52:01.292Z,8463.6
2018-03-04T16:53:01.089Z,7947.9
2018-03-04T16:54:01.109Z,7446.3
2018-03-04T16:55:01.086Z,6983.3
2018-03-04T16:56:01.092Z,6539.4
2018-03-04T16:57:01.352Z,6108.3
2018-03-04T16:58:01.091Z,5693.0
2018-03-04T16:59:01.118Z,5291.7
2018-03-04T17:00:01.085Z,4886.0
2018-03-04T17:01:01.087Z,4504.3
2018-03-04T17:02:01.331Z,4150.0
2018-03-04T17:03:01.084Z,3821.8
2018-03-04T17:04:01.084Z,3519.1
2018-03-04T17:05:01.086Z,3259.3
2018-03-04T17:06:01.085Z,3016.1
2018-03-04T17:07:01.315Z,2785.1
2018-03-04T17:08:01.086Z,2567.4
2018-03-04T17:09:01.085Z,2361.5
2018-03-04T17:10:06.087Z,2165.5
2018-03-04T17:11:01.097Z,1980.2
2018-03-04T17:12:01.324Z,1807.2
2018-03-04T17:13:01.087Z,1646.7
2018-03-04T17:14:01.089Z,1499.6
2018-03-04T17:15:01.104Z,1364.2
2018-03-04T17:16:01.118Z,1237.2
2018-03-04T17:17:01.301Z,1119.5
2018-03-04T17:18:01.088Z,1011.2
2018-03-04T17:19:01.092Z,911.3
2018-03-04T17:20:01.088Z,819.5
2018-03-04T17:21:01.117Z,735.0
2018-03-04T17:22:01.301Z,656.6
2018-03-04T17:23:01.089Z,584.9
2018-03-04T17:24:01.066Z,520.3
2018-03-04T17:25:01.091Z,462.7
2018-03-04T17:26:01.130Z,411.4
2018-03-04T17:27:01.299Z,365.0
2018-03-04T17:28:01.091Z,322.5
2018-03-04T17:29:01.093Z,283.4
2018-03-04T17:30:01.118Z,247.6
2018-03-04T17:31:01.129Z,215.7
2018-03-04T17:32:01.555Z,187.1
2018-03-04T17:33:01.167Z,161.5
2018-03-04T17:34:01.092Z,138.4
2018-03-04T17:35:01.096Z,117.5
2018-03-04T17:36:01.139Z,99.0
2018-03-04T17:37:01.296Z,83.1
2018-03-04T17:38:01.104Z,69.3
2018-03-04T17:39:01.095Z,57.7
2018-03-04T17:40:01.102Z,48.1
2018-03-04T17:41:01.128Z,39.9
2018-03-04T17:42:01.344Z,33.1
2018-03-04T17:43:01.096Z,27.3
2018-03-04T17:45:02.120Z,22.6
2018-03-04T17:46:01.083Z,18.8
2018-03-04T17:47:01.319Z,15.6
2018-03-04T17:48:01.080Z,13.0
2018-03-04T17:49:01.085Z,10.8
2018-03-04T17:50:01.121Z,9.0
2018-03-04T17:51:01.085Z,7.5
2018-03-04T17:52:01.330Z,6.3
2018-03-04T17:53:01.084Z,5.2
2018-03-04T17:54:02.116Z,4.3
2018-03-04T17:55:01.103Z,3.7
2018-03-04T17:56:01.082Z,3.1
2018-03-04T17:57:01.310Z,2.6
2018-03-04T17:58:01.082Z,2.2
2018-03-04T17:59:01.085Z,1.9
2018-03-04T18:00:01.083Z,1.7
2018-03-04T18:01:01.083Z,1.5
2018-03-04T18:02:01.319Z,1.3
2018-03-04T18:03:02.206Z,1.1
2018-03-04T18:04:01.090Z,1.0
2018-03-04T18:05:01.086Z,0.9
2018-03-04T18:06:01.087Z,0.7
2018-03-04T18:08:01.089Z,0.6
2018-03-04T18:09:01.091Z,0.5
2018-03-04T18:11:01.092Z,0.4
2018-03-04T18:12:01.383Z,0.3
2018-03-04T18:14:01.139Z,0.2
2018-03-04T18:15:01.095Z,0.1
